Bostwick, Georgia
Current Conditions -  °F | °C
As of 8:51 PM on Friday 19 Dec 2014 (Local Time) from KAHN Reporting Station
Clear Clear  
Wind Chill: 49°   Ceiling: Unl
Heat Index: 49°   Visibility: 10mi
Dew Point: 37°   Wind: 3mph
Humidity: 64%   Direction: 40°NE
Pressure: 30.13"   Gusts: NA
Location:  33.74°N, 83.51°W
Report Text: KAHN 200151Z AUTO 04003KT 10SM CLR 09/03 A3013 RMK AO2 SLP207 T00940028
Loading
Personal Weather Stations






























Interactive Weather Map New forecast layout! Learn more

10-Day Weather Forecast

Advertisements
Track Severe Weather on mobile